sensor_id;sensor_type;location;lat;lon;timestamp;pressure;altitude;pressure_sealevel;temperature;humidity
11936;BME280;6027;48.576;9.180;2022-07-04T00:00:04;97055.44;;;20.77;100.00
11936;BME280;6027;48.576;9.180;2022-07-04T00:02:30;97041.81;;;20.84;100.00
11936;BME280;6027;48.576;9.180;2022-07-04T00:04:56;97043.69;;;20.83;100.00
11936;BME280;6027;48.576;9.180;2022-07-04T00:07:21;97028.59;;;20.82;100.00
11936;BME280;6027;48.576;9.180;2022-07-04T00:09:46;97021.91;;;20.85;100.00
11936;BME280;6027;48.576;9.180;2022-07-04T00:12:12;97034.41;;;20.91;100.00
11936;BME280;6027;48.576;9.180;2022-07-04T00:14:37;97023.16;;;20.94;100.00
11936;BME280;6027;48.576;9.180;2022-07-04T00:17:03;97030.25;;;21.00;100.00
11936;BME280;6027;48.576;9.180;2022-07-04T00:19:29;97035.06;;;20.98;100.00
11936;BME280;6027;48.576;9.180;2022-07-04T00:21:54;97031.81;;;20.96;100.00
11936;BME280;6027;48.576;9.180;2022-07-04T00:24:20;97031.06;;;21.00;100.00
11936;BME280;6027;48.576;9.180;2022-07-04T00:26:45;97030.00;;;21.01;100.00
11936;BME280;6027;48.576;9.180;2022-07-04T00:29:11;97035.22;;;21.08;100.00
11936;BME280;6027;48.576;9.180;2022-07-04T00:31:36;97038.97;;;21.07;100.00
11936;BME280;6027;48.576;9.180;2022-07-04T00:34:01;97038.59;;;21.15;97.86
11936;BME280;6027;48.576;9.180;2022-07-04T00:36:27;97042.59;;;21.13;97.84
11936;BME280;6027;48.576;9.180;2022-07-04T00:38:52;97043.69;;;21.17;99.70
11936;BME280;6027;48.576;9.180;2022-07-04T00:41:18;97043.69;;;21.17;100.00
11936;BME280;6027;48.576;9.180;2022-07-04T00:43:43;97058.50;;;21.14;100.00
11936;BME280;6027;48.576;9.180;2022-07-04T00:46:09;97066.88;;;21.18;100.00
11936;BME280;6027;48.576;9.180;2022-07-04T00:48:34;97079.13;;;21.09;100.00
11936;BME280;6027;48.576;9.180;2022-07-04T00:51:00;97067.53;;;21.08;100.00
11936;BME280;6027;48.576;9.180;2022-07-04T00:53:26;97070.47;;;21.07;100.00
11936;BME280;6027;48.576;9.180;2022-07-04T00:55:52;97061.69;;;21.11;100.00
11936;BME280;6027;48.576;9.180;2022-07-04T00:58:22;97060.19;;;21.03;100.00
11936;BME280;6027;48.576;9.180;2022-07-04T01:00:48;97052.13;;;21.03;100.00
11936;BME280;6027;48.576;9.180;2022-07-04T01:03:14;97051.88;;;21.05;100.00
11936;BME280;6027;48.576;9.180;2022-07-04T01:05:41;97059.84;;;21.00;100.00
11936;BME280;6027;48.576;9.180;2022-07-04T01:08:07;97059.13;;;21.04;100.00
11936;BME280;6027;48.576;9.180;2022-07-04T01:10:33;97042.41;;;21.02;100.00
11936;BME280;6027;48.576;9.180;2022-07-04T01:12:58;97067.44;;;21.03;100.00
11936;BME280;6027;48.576;9.180;2022-07-04T01:15:24;97066.38;;;21.04;100.00
11936;BME280;6027;48.576;9.180;2022-07-04T01:17:50;97067.56;;;20.80;100.00
11936;BME280;6027;48.576;9.180;2022-07-04T01:20:15;97065.03;;;20.56;100.00
11936;BME280;6027;48.576;9.180;2022-07-04T01:22:41;97073.56;;;20.53;100.00
11936;BME280;6027;48.576;9.180;2022-07-04T01:25:08;97066.16;;;20.60;100.00
11936;BME280;6027;48.576;9.180;2022-07-04T01:27:34;97075.63;;;20.63;100.00
11936;BME280;6027;48.576;9.180;2022-07-04T01:30:00;97068.38;;;20.63;100.00
11936;BME280;6027;48.576;9.180;2022-07-04T01:32:25;97070.81;;;20.65;100.00
11936;BME280;6027;48.576;9.180;2022-07-04T01:34:51;97076.31;;;20.70;100.00
11936;BME280;6027;48.576;9.180;2022-07-04T01:37:16;97073.50;;;20.65;100.00
11936;BME280;6027;48.576;9.180;2022-07-04T01:39:42;97079.53;;;20.55;100.00
11936;BME280;6027;48.576;9.180;2022-07-04T01:42:08;97071.47;;;20.55;100.00
11936;BME280;6027;48.576;9.180;2022-07-04T01:44:34;97077.41;;;20.57;100.00
11936;BME280;6027;48.576;9.180;2022-07-04T01:47:00;97085.97;;;20.54;100.00
11936;BME280;6027;48.576;9.180;2022-07-04T01:49:25;97090.28;;;20.55;100.00
11936;BME280;6027;48.576;9.180;2022-07-04T01:51:51;97095.44;;;20.57;100.00
11936;BME280;6027;48.576;9.180;2022-07-04T01:54:17;97088.19;;;20.57;100.00
11936;BME280;6027;48.576;9.180;2022-07-04T01:56:43;97078.47;;;20.56;100.00
11936;BME280;6027;48.576;9.180;2022-07-04T01:59:09;97093.94;;;20.49;100.00
11936;BME280;6027;48.576;9.180;2022-07-04T02:01:34;97098.84;;;20.52;100.00
11936;BME280;6027;48.576;9.180;2022-07-04T02:04:05;97095.13;;;20.42;100.00
11936;BME280;6027;48.576;9.180;2022-07-04T02:06:31;97109.97;;;20.44;100.00
11936;BME280;6027;48.576;9.180;2022-07-04T02:08:57;97113.72;;;20.43;100.00
11936;BME280;6027;48.576;9.180;2022-07-04T02:11:41;97114.75;;;20.42;100.00
11936;BME280;6027;48.576;9.180;2022-07-04T02:14:25;97123.41;;;20.32;100.00
11936;BME280;6027;48.576;9.180;2022-07-04T02:16:50;97124.34;;;20.26;100.00
11936;BME280;6027;48.576;9.180;2022-07-04T02:19:16;97120.16;;;20.30;100.00
11936;BME280;6027;48.576;9.180;2022-07-04T02:21:42;97118.88;;;20.33;100.00
11936;BME280;6027;48.576;9.180;2022-07-04T02:24:08;97118.41;;;20.24;100.00
11936;BME280;6027;48.576;9.180;2022-07-04T02:26:33;97121.56;;;20.33;100.00
11936;BME280;6027;48.576;9.180;2022-07-04T02:28:59;97122.72;;;20.25;100.00
11936;BME280;6027;48.576;9.180;2022-07-04T02:31:25;97121.91;;;20.25;100.00
11936;BME280;6027;48.576;9.180;2022-07-04T02:33:50;97120.97;;;20.31;100.00
11936;BME280;6027;48.576;9.180;2022-07-04T02:36:15;97124.94;;;20.28;100.00
11936;BME280;6027;48.576;9.180;2022-07-04T02:38:41;97124.00;;;20.23;100.00
11936;BME280;6027;48.576;9.180;2022-07-04T02:41:06;97126.50;;;20.13;100.00
11936;BME280;6027;48.576;9.180;2022-07-04T02:43:32;97128.97;;;20.14;100.00
11936;BME280;6027;48.576;9.180;2022-07-04T02:46:00;97128.13;;;20.14;100.00
11936;BME280;6027;48.576;9.180;2022-07-04T02:48:26;97130.34;;;20.17;100.00
11936;BME280;6027;48.576;9.180;2022-07-04T02:50:51;97138.53;;;20.10;100.00
11936;BME280;6027;48.576;9.180;2022-07-04T02:53:16;97141.34;;;20.04;100.00
11936;BME280;6027;48.576;9.180;2022-07-04T02:55:42;97115.91;;;19.94;100.00
11936;BME280;6027;48.576;9.180;2022-07-04T02:58:07;97135.88;;;19.98;100.00
11936;BME280;6027;48.576;9.180;2022-07-04T03:00:33;97138.22;;;19.95;100.00
11936;BME280;6027;48.576;9.180;2022-07-04T03:02:58;97149.44;;;19.92;100.00
11936;BME280;6027;48.576;9.180;2022-07-04T03:05:24;97148.03;;;19.89;100.00
11936;BME280;6027;48.576;9.180;2022-07-04T03:07:49;97152.34;;;19.90;100.00
11936;BME280;6027;48.576;9.180;2022-07-04T03:10:15;97151.75;;;19.88;100.00
11936;BME280;6027;48.576;9.180;2022-07-04T03:12:40;97160.28;;;19.85;100.00
11936;BME280;6027;48.576;9.180;2022-07-04T03:15:06;97160.75;;;19.82;100.00
11936;BME280;6027;48.576;9.180;2022-07-04T03:17:32;97155.28;;;19.77;100.00
11936;BME280;6027;48.576;9.180;2022-07-04T03:19:57;97157.97;;;19.77;100.00
11936;BME280;6027;48.576;9.180;2022-07-04T03:22:23;97150.81;;;19.71;100.00
11936;BME280;6027;48.576;9.180;2022-07-04T03:24:48;97147.19;;;19.65;100.00
11936;BME280;6027;48.576;9.180;2022-07-04T03:27:14;97139.88;;;19.61;100.00
11936;BME280;6027;48.576;9.180;2022-07-04T03:29:40;97142.88;;;19.64;100.00
11936;BME280;6027;48.576;9.180;2022-07-04T03:32:05;97151.97;;;19.63;100.00
11936;BME280;6027;48.576;9.180;2022-07-04T03:34:31;97161.13;;;19.62;100.00
11936;BME280;6027;48.576;9.180;2022-07-04T03:36:57;97167.28;;;19.63;100.00
11936;BME280;6027;48.576;9.180;2022-07-04T03:39:22;97168.69;;;19.54;100.00
11936;BME280;6027;48.576;9.180;2022-07-04T03:41:47;97160.47;;;19.37;100.00
11936;BME280;6027;48.576;9.180;2022-07-04T03:44:13;97169.56;;;19.36;100.00
11936;BME280;6027;48.576;9.180;2022-07-04T03:46:39;97168.59;;;19.30;100.00
11936;BME280;6027;48.576;9.180;2022-07-04T03:49:04;97173.53;;;19.33;100.00
11936;BME280;6027;48.576;9.180;2022-07-04T03:51:30;97185.16;;;19.27;100.00
11936;BME280;6027;48.576;9.180;2022-07-04T03:53:56;97191.84;;;18.95;100.00
11936;BME280;6027;48.576;9.180;2022-07-04T03:56:22;97180.22;;;19.01;100.00
11936;BME280;6027;48.576;9.180;2022-07-04T03:58:47;97191.41;;;19.10;100.00
11936;BME280;6027;48.576;9.180;2022-07-04T04:01:19;97188.28;;;19.13;100.00
11936;BME280;6027;48.576;9.180;2022-07-04T04:03:45;97193.28;;;19.09;100.00
11936;BME280;6027;48.576;9.180;2022-07-04T04:06:30;97197.16;;;19.13;100.00
11936;BME280;6027;48.576;9.180;2022-07-04T04:08:56;97199.84;;;19.13;100.00
11936;BME280;6027;48.576;9.180;2022-07-04T04:11:22;97199.03;;;19.13;100.00
11936;BME280;6027;48.576;9.180;2022-07-04T04:13:47;97207.75;;;19.08;100.00
11936;BME280;6027;48.576;9.180;2022-07-04T04:16:16;97204.94;;;19.03;100.00
11936;BME280;6027;48.576;9.180;2022-07-04T04:18:41;97207.94;;;18.95;100.00
11936;BME280;6027;48.576;9.180;2022-07-04T04:21:07;97205.09;;;18.90;100.00
11936;BME280;6027;48.576;9.180;2022-07-04T04:23:33;97206.75;;;18.91;100.00
11936;BME280;6027;48.576;9.180;2022-07-04T04:25:58;97212.94;;;18.91;100.00
11936;BME280;6027;48.576;9.180;2022-07-04T04:28:24;97210.91;;;18.87;100.00
11936;BME280;6027;48.576;9.180;2022-07-04T04:30:52;97215.84;;;18.90;100.00
11936;BME280;6027;48.576;9.180;2022-07-04T04:33:18;97223.88;;;18.90;100.00
11936;BME280;6027;48.576;9.180;2022-07-04T04:35:43;97224.50;;;18.92;100.00
11936;BME280;6027;48.576;9.180;2022-07-04T04:38:09;97235.31;;;18.85;100.00
11936;BME280;6027;48.576;9.180;2022-07-04T04:40:34;97228.66;;;18.88;100.00
11936;BME280;6027;48.576;9.180;2022-07-04T04:42:59;97238.22;;;18.84;100.00
11936;BME280;6027;48.576;9.180;2022-07-04T04:45:25;97239.41;;;18.88;100.00
11936;BME280;6027;48.576;9.180;2022-07-04T04:47:50;97241.25;;;18.87;100.00
11936;BME280;6027;48.576;9.180;2022-07-04T04:50:19;97255.50;;;18.88;100.00
11936;BME280;6027;48.576;9.180;2022-07-04T04:52:45;97255.16;;;18.66;100.00
11936;BME280;6027;48.576;9.180;2022-07-04T04:55:10;97252.19;;;18.49;100.00
11936;BME280;6027;48.576;9.180;2022-07-04T04:57:36;97252.34;;;18.54;100.00
11936;BME280;6027;48.576;9.180;2022-07-04T05:00:02;97249.44;;;18.38;100.00
11936;BME280;6027;48.576;9.180;2022-07-04T05:02:30;97241.56;;;18.43;100.00
11936;BME280;6027;48.576;9.180;2022-07-04T05:04:56;97234.84;;;18.52;100.00
11936;BME280;6027;48.576;9.180;2022-07-04T05:07:21;97230.19;;;18.66;100.00
11936;BME280;6027;48.576;9.180;2022-07-04T05:09:47;97240.78;;;18.60;100.00
11936;BME280;6027;48.576;9.180;2022-07-04T05:12:12;97247.56;;;18.63;100.00
11936;BME280;6027;48.576;9.180;2022-07-04T05:14:38;97241.38;;;18.62;100.00
11936;BME280;6027;48.576;9.180;2022-07-04T05:17:03;97244.78;;;18.70;100.00
11936;BME280;6027;48.576;9.180;2022-07-04T05:19:29;97244.78;;;18.70;100.00
11936;BME280;6027;48.576;9.180;2022-07-04T05:21:55;97244.09;;;18.74;100.00
11936;BME280;6027;48.576;9.180;2022-07-04T05:24:20;97236.88;;;18.75;100.00
11936;BME280;6027;48.576;9.180;2022-07-04T05:26:45;97237.47;;;18.77;100.00
11936;BME280;6027;48.576;9.180;2022-07-04T05:29:11;97239.41;;;18.88;100.00
11936;BME280;6027;48.576;9.180;2022-07-04T05:31:38;97237.19;;;18.85;100.00
11936;BME280;6027;48.576;9.180;2022-07-04T05:34:04;97232.50;;;18.80;100.00
11936;BME280;6027;48.576;9.180;2022-07-04T05:36:30;97231.34;;;18.88;100.00
11936;BME280;6027;48.576;9.180;2022-07-04T05:38:57;97229.41;;;18.95;100.00
11936;BME280;6027;48.576;9.180;2022-07-04T05:41:23;97236.34;;;19.03;100.00
11936;BME280;6027;48.576;9.180;2022-07-04T05:43:48;97228.28;;;19.03;100.00
11936;BME280;6027;48.576;9.180;2022-07-04T05:46:14;97222.81;;;19.09;100.00
11936;BME280;6027;48.576;9.180;2022-07-04T05:48:39;97229.72;;;19.17;100.00
11936;BME280;6027;48.576;9.180;2022-07-04T05:51:05;97225.19;;;19.17;100.00
11936;BME280;6027;48.576;9.180;2022-07-04T05:53:31;97231.75;;;19.21;100.00
11936;BME280;6027;48.576;9.180;2022-07-04T05:55:57;97232.22;;;19.30;100.00
11936;BME280;6027;48.576;9.180;2022-07-04T05:58:22;97224.16;;;19.30;100.00
11936;BME280;6027;48.576;9.180;2022-07-04T06:00:48;97226.03;;;19.29;100.00
11936;BME280;6027;48.576;9.180;2022-07-04T06:03:13;97226.63;;;19.31;100.00
11936;BME280;6027;48.576;9.180;2022-07-04T06:05:39;97226.63;;;19.31;100.00
11936;BME280;6027;48.576;9.180;2022-07-04T06:08:04;97232.00;;;19.31;100.00
11936;BME280;6027;48.576;9.180;2022-07-04T06:10:30;97238.09;;;19.39;100.00
11936;BME280;6027;48.576;9.180;2022-07-04T06:12:55;97241.25;;;19.36;100.00
11936;BME280;6027;48.576;9.180;2022-07-04T06:15:21;97245.78;;;19.35;100.00
11936;BME280;6027;48.576;9.180;2022-07-04T06:17:46;97246.97;;;19.39;100.00
11936;BME280;6027;48.576;9.180;2022-07-04T06:20:11;97243.69;;;19.37;100.00
11936;BME280;6027;48.576;9.180;2022-07-04T06:22:46;97249.88;;;19.38;100.00
11936;BME280;6027;48.576;9.180;2022-07-04T06:25:17;97247.91;;;19.45;100.00
11936;BME280;6027;48.576;9.180;2022-07-04T06:27:43;97251.41;;;19.45;100.00
11936;BME280;6027;48.576;9.180;2022-07-04T06:30:10;97248.63;;;19.40;100.00
11936;BME280;6027;48.576;9.180;2022-07-04T06:35:03;97254.38;;;19.25;100.00
11936;BME280;6027;48.576;9.180;2022-07-04T06:37:47;97249.53;;;19.34;100.00
11936;BME280;6027;48.576;9.180;2022-07-04T06:40:13;97246.38;;;19.37;100.00
11936;BME280;6027;48.576;9.180;2022-07-04T06:42:38;97246.97;;;19.39;100.00
11936;BME280;6027;48.576;9.180;2022-07-04T06:45:04;97242.91;;;19.48;100.00
11936;BME280;6027;48.576;9.180;2022-07-04T06:47:29;97237.66;;;19.42;100.00
11936;BME280;6027;48.576;9.180;2022-07-04T06:49:56;97238.34;;;19.49;100.00
11936;BME280;6027;48.576;9.180;2022-07-04T06:52:21;97236.47;;;19.49;100.00
11936;BME280;6027;48.576;9.180;2022-07-04T06:54:46;97243.31;;;19.63;100.00
11936;BME280;6027;48.576;9.180;2022-07-04T06:57:12;97240.75;;;19.57;100.00
11936;BME280;6027;48.576;9.180;2022-07-04T06:59:39;97245.06;;;19.58;100.00
11936;BME280;6027;48.576;9.180;2022-07-04T07:02:04;97228.16;;;19.69;100.00
11936;BME280;6027;48.576;9.180;2022-07-04T07:04:30;97229.41;;;19.66;100.00
11936;BME280;6027;48.576;9.180;2022-07-04T07:06:55;97227.91;;;19.71;100.00
11936;BME280;6027;48.576;9.180;2022-07-04T07:09:21;97232.59;;;19.75;100.00
11936;BME280;6027;48.576;9.180;2022-07-04T07:11:46;97232.47;;;19.70;100.00
11936;BME280;6027;48.576;9.180;2022-07-04T07:14:11;97233.44;;;19.76;100.00
11936;BME280;6027;48.576;9.180;2022-07-04T07:16:37;97236.47;;;19.79;100.00
11936;BME280;6027;48.576;9.180;2022-07-04T07:19:02;97223.03;;;19.79;100.00
11936;BME280;6027;48.576;9.180;2022-07-04T07:21:29;97216.03;;;19.78;100.00
11936;BME280;6027;48.576;9.180;2022-07-04T07:23:54;97221.03;;;19.86;100.00
11936;BME280;6027;48.576;9.180;2022-07-04T07:26:20;97215.56;;;19.81;100.00
11936;BME280;6027;48.576;9.180;2022-07-04T07:28:46;97205.63;;;19.82;100.00
11936;BME280;6027;48.576;9.180;2022-07-04T07:31:12;97212.28;;;19.79;100.00
11936;BME280;6027;48.576;9.180;2022-07-04T07:33:37;97202.13;;;19.93;100.00
11936;BME280;6027;48.576;9.180;2022-07-04T07:36:04;97212.75;;;19.88;100.00
11936;BME280;6027;48.576;9.180;2022-07-04T07:38:29;97205.63;;;19.93;100.00
11936;BME280;6027;48.576;9.180;2022-07-04T07:40:55;97205.25;;;20.01;100.00
11936;BME280;6027;48.576;9.180;2022-07-04T07:43:20;97201.41;;;20.09;100.00
11936;BME280;6027;48.576;9.180;2022-07-04T07:45:46;97202.34;;;20.03;100.00
11936;BME280;6027;48.576;9.180;2022-07-04T07:48:12;97207.03;;;20.08;100.00
11936;BME280;6027;48.576;9.180;2022-07-04T07:50:37;97198.84;;;20.02;100.00
11936;BME280;6027;48.576;9.180;2022-07-04T07:53:03;97207.16;;;20.01;100.00
11936;BME280;6027;48.576;9.180;2022-07-04T07:55:28;97205.84;;;20.04;100.00
11936;BME280;6027;48.576;9.180;2022-07-04T07:57:54;97202.56;;;20.01;100.00
11936;BME280;6027;48.576;9.180;2022-07-04T08:00:19;97197.22;;;20.13;100.00
11936;BME280;6027;48.576;9.180;2022-07-04T08:02:45;97192.78;;;20.19;100.00
11936;BME280;6027;48.576;9.180;2022-07-04T08:05:29;97193.00;;;20.17;100.00
11936;BME280;6027;48.576;9.180;2022-07-04T08:07:54;97202.47;;;20.20;100.00
11936;BME280;6027;48.576;9.180;2022-07-04T08:10:20;97191.00;;;20.24;100.00
11936;BME280;6027;48.576;9.180;2022-07-04T08:12:45;97195.44;;;20.30;100.00
11936;BME280;6027;48.576;9.180;2022-07-04T08:15:11;97190.19;;;20.35;100.00
11936;BME280;6027;48.576;9.180;2022-07-04T08:17:36;97185.50;;;20.31;100.00
11936;BME280;6027;48.576;9.180;2022-07-04T08:20:05;97183.16;;;20.34;100.00
11936;BME280;6027;48.576;9.180;2022-07-04T08:22:31;97179.66;;;20.46;100.00
11936;BME280;6027;48.576;9.180;2022-07-04T08:24:56;97172.41;;;20.46;100.00
11936;BME280;6027;48.576;9.180;2022-07-04T08:27:22;97168.19;;;20.50;100.00
11936;BME280;6027;48.576;9.180;2022-07-04T08:29:48;97179.41;;;20.47;100.00
11936;BME280;6027;48.576;9.180;2022-07-04T08:32:14;97181.28;;;20.47;100.00
11936;BME280;6027;48.576;9.180;2022-07-04T08:34:39;97185.28;;;20.44;100.00
11936;BME280;6027;48.576;9.180;2022-07-04T08:37:05;97181.75;;;20.55;100.00
11936;BME280;6027;48.576;9.180;2022-07-04T08:39:31;97181.75;;;20.55;100.00
11936;BME280;6027;48.576;9.180;2022-07-04T08:42:02;97183.50;;;20.50;100.00
11936;BME280;6027;48.576;9.180;2022-07-04T08:44:29;97193.44;;;20.49;100.00
11936;BME280;6027;48.576;9.180;2022-07-04T08:46:55;97195.78;;;20.57;100.00
11936;BME280;6027;48.576;9.180;2022-07-04T08:49:24;97189.59;;;20.57;100.00
11936;BME280;6027;48.576;9.180;2022-07-04T08:51:55;97188.50;;;20.69;100.00
11936;BME280;6027;48.576;9.180;2022-07-04T08:54:24;97194.31;;;20.78;100.00
11936;BME280;6027;48.576;9.180;2022-07-04T08:57:16;97186.25;;;20.78;100.00
11936;BME280;6027;48.576;9.180;2022-07-04T09:00:00;97191.81;;;20.88;100.00
11936;BME280;6027;48.576;9.180;2022-07-04T09:02:28;97196.03;;;20.96;100.00
11936;BME280;6027;48.576;9.180;2022-07-04T09:04:54;97189.66;;;21.02;100.00
11936;BME280;6027;48.576;9.180;2022-07-04T09:07:20;97189.66;;;21.02;100.00
11936;BME280;6027;48.576;9.180;2022-07-04T09:09:46;97192.34;;;21.02;100.00
11936;BME280;6027;48.576;9.180;2022-07-04T09:12:11;97190.34;;;21.09;100.00
11936;BME280;6027;48.576;9.180;2022-07-04T09:14:38;97205.03;;;21.18;100.00
11936;BME280;6027;48.576;9.180;2022-07-04T09:17:05;97195.53;;;21.27;100.00
11936;BME280;6027;48.576;9.180;2022-07-04T09:19:31;97203.25;;;21.35;100.00
11936;BME280;6027;48.576;9.180;2022-07-04T09:21:56;97203.63;;;21.27;100.00
11936;BME280;6027;48.576;9.180;2022-07-04T09:27:10;97207.50;;;21.48;100.00
11936;BME280;6027;48.576;9.180;2022-07-04T09:29:51;97204.81;;;21.48;100.00
11936;BME280;6027;48.576;9.180;2022-07-04T09:32:32;97203.50;;;21.51;100.00
11936;BME280;6027;48.576;9.180;2022-07-04T09:34:58;97209.63;;;21.63;100.00
11936;BME280;6027;48.576;9.180;2022-07-04T09:37:33;97216.66;;;21.64;100.00
11936;BME280;6027;48.576;9.180;2022-07-04T09:39:58;97211.25;;;21.64;100.00
11936;BME280;6027;48.576;9.180;2022-07-04T09:42:24;97204.66;;;21.71;100.00
11936;BME280;6027;48.576;9.180;2022-07-04T09:44:49;97217.91;;;21.73;100.00
11936;BME280;6027;48.576;9.180;2022-07-04T09:47:27;97218.78;;;21.62;100.00
11936;BME280;6027;48.576;9.180;2022-07-04T09:52:58;97213.94;;;21.81;100.00
11936;BME280;6027;48.576;9.180;2022-07-04T09:57:54;97221.69;;;21.94;100.00
11936;BME280;6027;48.576;9.180;2022-07-04T10:08:28;97222.31;;;22.13;100.00
11936;BME280;6027;48.576;9.180;2022-07-04T10:10:58;97220.25;;;22.20;100.00
11936;BME280;6027;48.576;9.180;2022-07-04T10:13:24;97217.56;;;22.20;100.00
11936;BME280;6027;48.576;9.180;2022-07-04T10:15:50;97222.69;;;22.21;98.23
11936;BME280;6027;48.576;9.180;2022-07-04T10:18:18;97223.69;;;22.32;95.60
11936;BME280;6027;48.576;9.180;2022-07-04T10:20:45;97215.19;;;22.23;92.22
11936;BME280;6027;48.576;9.180;2022-07-04T10:23:11;97220.16;;;22.15;100.00
11936;BME280;6027;48.576;9.180;2022-07-04T10:25:37;97225.31;;;22.16;91.16
11936;BME280;6027;48.576;9.180;2022-07-04T10:28:04;97217.06;;;22.23;92.46
11936;BME280;6027;48.576;9.180;2022-07-04T10:30:32;97214.44;;;22.28;98.78
11936;BME280;6027;48.576;9.180;2022-07-04T10:33:00;97222.41;;;22.39;100.00
11936;BME280;6027;48.576;9.180;2022-07-04T10:38:16;97213.25;;;22.40;100.00
11936;BME280;6027;48.576;9.180;2022-07-04T10:40:45;97217.28;;;22.38;92.67
11936;BME280;6027;48.576;9.180;2022-07-04T10:51:42;97199.28;;;22.65;88.27
11936;BME280;6027;48.576;9.180;2022-07-04T10:56:43;97203.59;;;22.83;87.62
11936;BME280;6027;48.576;9.180;2022-07-04T10:59:15;97198.00;;;22.90;82.98
11936;BME280;6027;48.576;9.180;2022-07-04T11:01:50;97204.00;;;22.97;86.18
11936;BME280;6027;48.576;9.180;2022-07-04T11:04:59;97186.88;;;22.86;80.86
11936;BME280;6027;48.576;9.180;2022-07-04T11:13:06;97183.53;;;23.01;79.01
11936;BME280;6027;48.576;9.180;2022-07-04T11:17:59;97184.75;;;23.15;89.66
11936;BME280;6027;48.576;9.180;2022-07-04T11:20:26;97195.13;;;23.23;79.13
11936;BME280;6027;48.576;9.180;2022-07-04T11:22:51;97187.00;;;23.23;75.58
11936;BME280;6027;48.576;9.180;2022-07-04T11:25:17;97179.91;;;23.17;85.04
11936;BME280;6027;48.576;9.180;2022-07-04T11:27:43;97174.31;;;23.24;86.40
11936;BME280;6027;48.576;9.180;2022-07-04T11:30:09;97168.19;;;23.33;80.80
11936;BME280;6027;48.576;9.180;2022-07-04T11:32:37;97167.13;;;23.34;72.69
11936;BME280;6027;48.576;9.180;2022-07-04T11:35:04;97169.34;;;23.42;74.09
11936;BME280;6027;48.576;9.180;2022-07-04T11:37:30;97170.47;;;23.47;71.05
11936;BME280;6027;48.576;9.180;2022-07-04T11:39:56;97167.41;;;23.38;83.49
11936;BME280;6027;48.576;9.180;2022-07-04T11:43:04;97171.91;;;23.54;69.23
11936;BME280;6027;48.576;9.180;2022-07-04T11:45:48;97156.78;;;23.53;66.71
11936;BME280;6027;48.576;9.180;2022-07-04T11:48:26;97156.50;;;23.55;81.07
11936;BME280;6027;48.576;9.180;2022-07-04T11:50:53;97149.78;;;23.57;81.29
11936;BME280;6027;48.576;9.180;2022-07-04T11:53:19;97150.53;;;23.53;76.94
11936;BME280;6027;48.576;9.180;2022-07-04T11:55:55;97140.38;;;23.65;71.99
11936;BME280;6027;48.576;9.180;2022-07-04T11:58:22;97132.81;;;23.67;67.94
11936;BME280;6027;48.576;9.180;2022-07-04T12:00:48;97132.53;;;23.63;66.77
11936;BME280;6027;48.576;9.180;2022-07-04T12:03:14;97132.53;;;23.63;70.09
11936;BME280;6027;48.576;9.180;2022-07-04T12:05:39;97132.28;;;23.65;71.25
11936;BME280;6027;48.576;9.180;2022-07-04T12:08:05;97127.41;;;23.67;72.33
11936;BME280;6027;48.576;9.180;2022-07-04T12:10:34;97131.81;;;23.78;72.75
11936;BME280;6027;48.576;9.180;2022-07-04T12:13:02;97132.44;;;23.85;64.23
11936;BME280;6027;48.576;9.180;2022-07-04T12:15:39;97132.44;;;23.90;66.44
11936;BME280;6027;48.576;9.180;2022-07-04T12:18:24;97130.53;;;23.86;66.10
11936;BME280;6027;48.576;9.180;2022-07-04T12:20:52;97119.97;;;23.84;71.39
11936;BME280;6027;48.576;9.180;2022-07-04T12:23:19;97115.41;;;23.90;69.07
11936;BME280;6027;48.576;9.180;2022-07-04T12:25:46;97106.50;;;23.94;66.60
11936;BME280;6027;48.576;9.180;2022-07-04T12:28:14;97099.53;;;24.03;66.58
11936;BME280;6027;48.576;9.180;2022-07-04T12:33:19;97095.50;;;24.11;65.31
11936;BME280;6027;48.576;9.180;2022-07-04T12:35:45;97090.69;;;24.18;63.49
11936;BME280;6027;48.576;9.180;2022-07-04T12:40:54;97086.31;;;24.12;72.41
11936;BME280;6027;48.576;9.180;2022-07-04T12:43:21;97081.75;;;24.18;63.61
11936;BME280;6027;48.576;9.180;2022-07-04T12:45:52;97078.78;;;24.19;62.21
11936;BME280;6027;48.576;9.180;2022-07-04T12:48:28;97082.88;;;24.27;68.22
11936;BME280;6027;48.576;9.180;2022-07-04T12:51:16;97068.84;;;24.35;63.18
11936;BME280;6027;48.576;9.180;2022-07-04T12:53:44;97062.63;;;24.34;61.33
11936;BME280;6027;48.576;9.180;2022-07-04T12:56:15;97059.69;;;24.41;62.34
11936;BME280;6027;48.576;9.180;2022-07-04T12:58:52;97053.16;;;24.32;61.88
11936;BME280;6027;48.576;9.180;2022-07-04T13:01:17;97047.75;;;24.37;62.65
11936;BME280;6027;48.576;9.180;2022-07-04T13:03:43;97051.00;;;24.34;61.80
11936;BME280;6027;48.576;9.180;2022-07-04T13:06:08;97044.25;;;24.36;67.67
11936;BME280;6027;48.576;9.180;2022-07-04T13:08:34;97034.25;;;24.42;61.64
11936;BME280;6027;48.576;9.180;2022-07-04T13:10:59;97031.03;;;24.55;62.24
11936;BME280;6027;48.576;9.180;2022-07-04T13:13:45;97049.19;;;24.70;61.53
11936;BME280;6027;48.576;9.180;2022-07-04T13:16:10;97043.75;;;24.65;59.33
11936;BME280;6027;48.576;9.180;2022-07-04T13:18:36;97043.78;;;24.70;61.73
11936;BME280;6027;48.576;9.180;2022-07-04T13:21:01;97032.13;;;24.59;59.15
11936;BME280;6027;48.576;9.180;2022-07-04T13:23:27;97029.41;;;24.64;59.23
11936;BME280;6027;48.576;9.180;2022-07-04T13:25:52;97032.13;;;24.59;63.19
11936;BME280;6027;48.576;9.180;2022-07-04T13:28:18;97028.06;;;24.57;59.35
11936;BME280;6027;48.576;9.180;2022-07-04T13:30:43;97030.50;;;24.58;59.86
11936;BME280;6027;48.576;9.180;2022-07-04T13:33:09;97039.16;;;24.65;60.62
11936;BME280;6027;48.576;9.180;2022-07-04T13:35:34;97032.16;;;24.74;58.85
11936;BME280;6027;48.576;9.180;2022-07-04T13:38:00;97035.41;;;24.82;58.60
11936;BME280;6027;48.576;9.180;2022-07-04T13:40:25;97032.97;;;24.75;60.71
11936;BME280;6027;48.576;9.180;2022-07-04T13:42:51;97025.66;;;24.86;59.99
11936;BME280;6027;48.576;9.180;2022-07-04T13:45:22;97030.53;;;24.89;57.46
11936;BME280;6027;48.576;9.180;2022-07-04T13:47:48;97023.75;;;24.91;58.47